sensor_id;sensor_type;location;lat;lon;timestamp;pressure;altitude;pressure_sealevel;temperature;humidity
9325;BME280;4701;51.566;6.776;2023-03-25T07:03:43;99985.59;;;8.54;85.15
9325;BME280;4701;51.566;6.776;2023-03-25T07:06:45;99960.03;;;8.60;85.85
9325;BME280;4701;51.566;6.776;2023-03-25T07:09:50;99968.19;;;8.65;86.63
9325;BME280;4701;51.566;6.776;2023-03-25T07:12:52;99958.94;;;8.71;86.62
9325;BME280;4701;51.566;6.776;2023-03-25T07:15:54;99964.91;;;8.79;86.05
9325;BME280;4701;51.566;6.776;2023-03-25T07:18:57;99956.47;;;8.85;86.49
9325;BME280;4701;51.566;6.776;2023-03-25T07:21:59;99969.00;;;8.91;85.64
9325;BME280;4701;51.566;6.776;2023-03-25T07:25:01;99968.97;;;8.96;85.65
9325;BME280;4701;51.566;6.776;2023-03-25T07:28:03;99986.38;;;9.00;84.85
9325;BME280;4701;51.566;6.776;2023-03-25T07:31:08;99983.63;;;9.05;84.61
9325;BME280;4701;51.566;6.776;2023-03-25T07:34:11;99989.06;;;9.10;83.90
9325;BME280;4701;51.566;6.776;2023-03-25T07:37:13;100012.97;;;9.14;83.93
9325;BME280;4701;51.566;6.776;2023-03-25T07:40:15;99989.88;;;9.16;83.23
9325;BME280;4701;51.566;6.776;2023-03-25T07:43:17;99993.13;;;9.18;83.05
9325;BME280;4701;51.566;6.776;2023-03-25T07:46:30;99986.03;;;9.22;82.46
9325;BME280;4701;51.566;6.776;2023-03-25T07:49:33;99974.91;;;9.24;82.43
9325;BME280;4701;51.566;6.776;2023-03-25T07:52:35;99974.63;;;9.25;81.75
9325;BME280;4701;51.566;6.776;2023-03-25T07:55:37;99979.78;;;9.27;82.24
9325;BME280;4701;51.566;6.776;2023-03-25T07:58:39;99965.91;;;9.28;81.73
9325;BME280;4701;51.566;6.776;2023-03-25T08:01:41;99977.88;;;9.32;81.03
9325;BME280;4701;51.566;6.776;2023-03-25T08:04:44;99981.13;;;9.34;80.79
9325;BME280;4701;51.566;6.776;2023-03-25T08:07:46;100005.31;;;9.36;80.35
9325;BME280;4701;51.566;6.776;2023-03-25T08:10:49;99989.25;;;9.39;79.53
9325;BME280;4701;51.566;6.776;2023-03-25T08:13:51;99982.47;;;9.42;79.54
9325;BME280;4701;51.566;6.776;2023-03-25T08:16:53;99999.59;;;9.42;79.29
9325;BME280;4701;51.566;6.776;2023-03-25T08:19:56;99991.69;;;9.46;78.24
9325;BME280;4701;51.566;6.776;2023-03-25T08:23:00;99995.22;;;9.46;78.24
9325;BME280;4701;51.566;6.776;2023-03-25T08:26:03;100010.19;;;9.49;77.79
9325;BME280;4701;51.566;6.776;2023-03-25T08:29:05;100000.66;;;9.52;77.58
9325;BME280;4701;51.566;6.776;2023-03-25T08:32:07;100031.09;;;9.54;77.56
9325;BME280;4701;51.566;6.776;2023-03-25T08:35:10;100000.34;;;9.58;76.56
9325;BME280;4701;51.566;6.776;2023-03-25T08:38:12;100000.09;;;9.60;76.38
9325;BME280;4701;51.566;6.776;2023-03-25T08:41:14;100003.84;;;9.64;75.57
9325;BME280;4701;51.566;6.776;2023-03-25T08:44:16;99995.41;;;9.65;75.75
9325;BME280;4701;51.566;6.776;2023-03-25T08:47:18;100004.41;;;9.66;75.89
9325;BME280;4701;51.566;6.776;2023-03-25T08:50:21;100001.94;;;9.69;76.45
9325;BME280;4701;51.566;6.776;2023-03-25T08:53:23;100004.38;;;9.71;75.86
9325;BME280;4701;51.566;6.776;2023-03-25T08:56:25;100006.81;;;9.72;76.52
9325;BME280;4701;51.566;6.776;2023-03-25T08:59:27;100012.25;;;9.72;75.97
9325;BME280;4701;51.566;6.776;2023-03-25T09:02:29;100014.72;;;9.74;76.59
9325;BME280;4701;51.566;6.776;2023-03-25T09:05:32;100005.72;;;9.73;76.21
9325;BME280;4701;51.566;6.776;2023-03-25T09:08:35;100015.78;;;9.73;76.56
9325;BME280;4701;51.566;6.776;2023-03-25T09:11:37;99995.66;;;9.74;76.59
9325;BME280;4701;51.566;6.776;2023-03-25T09:14:39;100008.41;;;9.78;76.91
9325;BME280;4701;51.566;6.776;2023-03-25T09:17:41;100008.41;;;9.78;76.88
9325;BME280;4701;51.566;6.776;2023-03-25T09:20:44;100021.47;;;9.81;77.36
9325;BME280;4701;51.566;6.776;2023-03-25T09:23:47;100023.38;;;9.86;76.69
9325;BME280;4701;51.566;6.776;2023-03-25T09:26:49;100038.03;;;9.90;76.41
9325;BME280;4701;51.566;6.776;2023-03-25T09:29:51;100033.13;;;9.92;76.55
9325;BME280;4701;51.566;6.776;2023-03-25T09:32:53;100030.97;;;9.94;77.42
9325;BME280;4701;51.566;6.776;2023-03-25T09:35:56;100032.88;;;9.94;78.55
9325;BME280;4701;51.566;6.776;2023-03-25T09:38:58;100028.78;;;9.91;78.84
9325;BME280;4701;51.566;6.776;2023-03-25T09:42:26;100021.72;;;9.90;79.39
9325;BME280;4701;51.566;6.776;2023-03-25T09:45:34;100029.34;;;9.88;80.35
9325;BME280;4701;51.566;6.776;2023-03-25T09:48:37;100029.91;;;9.85;80.58
9325;BME280;4701;51.566;6.776;2023-03-25T09:51:42;100036.72;;;9.82;80.62
9325;BME280;4701;51.566;6.776;2023-03-25T09:54:48;100043.53;;;9.80;81.37
9325;BME280;4701;51.566;6.776;2023-03-25T09:57:55;100050.59;;;9.81;81.78
9325;BME280;4701;51.566;6.776;2023-03-25T10:01:00;100051.44;;;9.76;82.23
9325;BME280;4701;51.566;6.776;2023-03-25T10:04:19;100053.34;;;9.76;82.55
9325;BME280;4701;51.566;6.776;2023-03-25T10:07:40;100052.00;;;9.73;82.67
9325;BME280;4701;51.566;6.776;2023-03-25T10:10:49;100067.50;;;9.73;83.66
9325;BME280;4701;51.566;6.776;2023-03-25T10:13:54;100060.69;;;9.70;83.38
9325;BME280;4701;51.566;6.776;2023-03-25T10:17:12;100052.53;;;9.70;83.86
9325;BME280;4701;51.566;6.776;2023-03-25T10:20:20;100046.28;;;9.70;83.82
9325;BME280;4701;51.566;6.776;2023-03-25T10:23:32;100059.09;;;9.69;83.86
9325;BME280;4701;51.566;6.776;2023-03-25T10:26:39;100053.34;;;9.71;84.16
9325;BME280;4701;51.566;6.776;2023-03-25T10:29:47;100038.09;;;9.70;84.50
9325;BME280;4701;51.566;6.776;2023-03-25T10:32:52;100044.38;;;9.70;84.55
9325;BME280;4701;51.566;6.776;2023-03-25T10:35:57;100047.09;;;9.70;84.78
9325;BME280;4701;51.566;6.776;2023-03-25T10:39:04;100056.38;;;9.69;84.54
9325;BME280;4701;51.566;6.776;2023-03-25T10:42:18;100074.03;;;9.72;84.58
9325;BME280;4701;51.566;6.776;2023-03-25T10:45:22;100075.94;;;9.71;84.34
9325;BME280;4701;51.566;6.776;2023-03-25T10:48:25;100068.59;;;9.72;84.73
9325;BME280;4701;51.566;6.776;2023-03-25T10:51:29;100075.13;;;9.71;84.90
9325;BME280;4701;51.566;6.776;2023-03-25T10:54:36;100077.03;;;9.70;85.12
9325;BME280;4701;51.566;6.776;2023-03-25T10:57:40;100057.69;;;9.72;85.17
9325;BME280;4701;51.566;6.776;2023-03-25T11:00:42;100069.41;;;9.72;85.77
9325;BME280;4701;51.566;6.776;2023-03-25T11:03:49;100085.47;;;9.74;85.79
9325;BME280;4701;51.566;6.776;2023-03-25T11:06:54;100066.41;;;9.74;85.66
9325;BME280;4701;51.566;6.776;2023-03-25T11:10:13;100058.53;;;9.72;86.60
9325;BME280;4701;51.566;6.776;2023-03-25T11:13:15;100061.78;;;9.74;86.70
9325;BME280;4701;51.566;6.776;2023-03-25T11:16:21;100069.94;;;9.74;86.28
9325;BME280;4701;51.566;6.776;2023-03-25T11:19:26;100050.09;;;9.74;86.25
9325;BME280;4701;51.566;6.776;2023-03-25T11:22:29;100059.34;;;9.73;86.60
9325;BME280;4701;51.566;6.776;2023-03-25T11:25:36;100049.28;;;9.73;86.65
9325;BME280;4701;51.566;6.776;2023-03-25T11:28:43;100050.09;;;9.74;86.00
9325;BME280;4701;51.566;6.776;2023-03-25T11:31:55;100048.72;;;9.76;86.52
9325;BME280;4701;51.566;6.776;2023-03-25T11:35:00;100049.78;;;9.80;86.03
9325;BME280;4701;51.566;6.776;2023-03-25T11:38:13;100029.09;;;9.84;86.08
9325;BME280;4701;51.566;6.776;2023-03-25T11:41:17;100052.47;;;9.91;86.74
9325;BME280;4701;51.566;6.776;2023-03-25T11:44:22;100024.69;;;9.94;86.32
9325;BME280;4701;51.566;6.776;2023-03-25T11:47:29;100014.03;;;10.02;86.07
9325;BME280;4701;51.566;6.776;2023-03-25T11:50:31;100037.97;;;10.05;84.91
9325;BME280;4701;51.566;6.776;2023-03-25T11:53:33;100019.72;;;10.11;84.15
9325;BME280;4701;51.566;6.776;2023-03-25T11:56:38;100023.50;;;10.20;83.16
9325;BME280;4701;51.566;6.776;2023-03-25T11:59:43;100030.25;;;10.28;82.49
9325;BME280;4701;51.566;6.776;2023-03-25T12:02:46;100028.84;;;10.35;81.36
9325;BME280;4701;51.566;6.776;2023-03-25T12:05:59;100018.72;;;10.41;80.75
9325;BME280;4701;51.566;6.776;2023-03-25T12:09:08;100009.72;;;10.45;79.70
9325;BME280;4701;51.566;6.776;2023-03-25T12:12:25;100013.22;;;10.51;78.63
9325;BME280;4701;51.566;6.776;2023-03-25T12:15:35;100008.50;;;10.61;77.45
9325;BME280;4701;51.566;6.776;2023-03-25T12:19:00;100035.69;;;10.67;77.04
9325;BME280;4701;51.566;6.776;2023-03-25T12:22:15;100024.25;;;10.70;76.60
9325;BME280;4701;51.566;6.776;2023-03-25T12:25:24;100046.75;;;10.80;74.52
9325;BME280;4701;51.566;6.776;2023-03-25T12:29:02;100043.75;;;10.82;74.39
9325;BME280;4701;51.566;6.776;2023-03-25T12:32:19;100031.22;;;10.81;74.83
9325;BME280;4701;51.566;6.776;2023-03-25T12:35:30;100024.13;;;10.85;74.10
9325;BME280;4701;51.566;6.776;2023-03-25T12:38:47;100006.59;;;10.91;73.70
9325;BME280;4701;51.566;6.776;2023-03-25T12:41:58;100013.41;;;10.93;74.35
9325;BME280;4701;51.566;6.776;2023-03-25T12:45:17;100030.50;;;11.04;74.63
9325;BME280;4701;51.566;6.776;2023-03-25T12:48:38;100016.78;;;11.14;73.83
9325;BME280;4701;51.566;6.776;2023-03-25T12:51:51;100010.97;;;11.21;74.49
9325;BME280;4701;51.566;6.776;2023-03-25T12:55:03;100026.63;;;11.34;74.73
9325;BME280;4701;51.566;6.776;2023-03-25T12:58:20;100032.28;;;11.43;73.84
9325;BME280;4701;51.566;6.776;2023-03-25T13:01:32;100008.50;;;11.48;72.68
9325;BME280;4701;51.566;6.776;2023-03-25T13:04:59;100025.91;;;11.52;71.43
9325;BME280;4701;51.566;6.776;2023-03-25T13:08:09;100048.25;;;11.54;70.68
9325;BME280;4701;51.566;6.776;2023-03-25T13:11:19;100025.34;;;11.55;69.76
9325;BME280;4701;51.566;6.776;2023-03-25T13:14:24;100018.78;;;11.56;69.39
9325;BME280;4701;51.566;6.776;2023-03-25T13:17:33;100043.84;;;11.58;69.71
9325;BME280;4701;51.566;6.776;2023-03-25T13:20:41;100024.41;;;11.65;69.43
9325;BME280;4701;51.566;6.776;2023-03-25T13:23:47;100047.03;;;11.65;69.80
9325;BME280;4701;51.566;6.776;2023-03-25T13:26:52;100042.63;;;11.69;69.15
9325;BME280;4701;51.566;6.776;2023-03-25T13:29:56;100037.44;;;11.68;69.01
9325;BME280;4701;51.566;6.776;2023-03-25T13:33:06;100047.56;;;11.67;69.42
9325;BME280;4701;51.566;6.776;2023-03-25T13:36:16;100050.56;;;11.66;70.13
9325;BME280;4701;51.566;6.776;2023-03-25T13:39:26;100041.06;;;11.63;71.52
9325;BME280;4701;51.566;6.776;2023-03-25T13:42:35;100081.47;;;11.61;72.77
9325;BME280;4701;51.566;6.776;2023-03-25T13:45:43;100041.09;;;11.58;72.76
9325;BME280;4701;51.566;6.776;2023-03-25T13:48:52;100062.53;;;11.46;72.29
9325;BME280;4701;51.566;6.776;2023-03-25T13:51:57;100056.91;;;11.37;72.13
9325;BME280;4701;51.566;6.776;2023-03-25T13:55:03;100048.53;;;11.29;72.81
9325;BME280;4701;51.566;6.776;2023-03-25T14:01:58;100077.06;;;11.13;74.17
9325;BME280;4701;51.566;6.776;2023-03-25T14:05:28;100052.53;;;11.08;74.41
9325;BME280;4701;51.566;6.776;2023-03-25T14:09:11;100112.88;;;11.01;75.32
9325;BME280;4701;51.566;6.776;2023-03-25T14:12:20;100068.19;;;10.97;75.74
9325;BME280;4701;51.566;6.776;2023-03-25T14:15:27;100060.00;;;10.97;76.74
9325;BME280;4701;51.566;6.776;2023-03-25T14:18:30;100054.84;;;10.95;77.29
9325;BME280;4701;51.566;6.776;2023-03-25T14:21:41;100065.69;;;11.00;77.82
9325;BME280;4701;51.566;6.776;2023-03-25T14:24:44;100067.84;;;11.04;77.27
9325;BME280;4701;51.566;6.776;2023-03-25T14:27:48;100062.41;;;11.04;77.66
9325;BME280;4701;51.566;6.776;2023-03-25T14:31:06;100067.84;;;11.04;77.49
9325;BME280;4701;51.566;6.776;2023-03-25T14:34:26;100074.94;;;11.05;76.97
9325;BME280;4701;51.566;6.776;2023-03-25T14:37:30;100077.66;;;11.05;76.48
9325;BME280;4701;51.566;6.776;2023-03-25T14:40:47;100061.31;;;11.05;76.31
9325;BME280;4701;51.566;6.776;2023-03-25T14:43:51;100075.22;;;11.03;75.46
9325;BME280;4701;51.566;6.776;2023-03-25T14:47:29;100070.03;;;11.02;74.88
9325;BME280;4701;51.566;6.776;2023-03-25T14:50:32;100062.44;;;10.98;74.93
9325;BME280;4701;51.566;6.776;2023-03-25T14:53:37;100088.66;;;10.94;74.87
9325;BME280;4701;51.566;6.776;2023-03-25T14:56:45;100093.28;;;10.94;75.14
9325;BME280;4701;51.566;6.776;2023-03-25T14:59:50;100099.03;;;10.92;75.92
9325;BME280;4701;51.566;6.776;2023-03-25T15:02:58;100079.19;;;10.87;76.73
9325;BME280;4701;51.566;6.776;2023-03-25T15:06:02;100077.53;;;10.86;77.41
9325;BME280;4701;51.566;6.776;2023-03-25T15:09:09;100067.47;;;10.81;78.21
9325;BME280;4701;51.566;6.776;2023-03-25T15:12:23;100100.19;;;10.81;78.50
9325;BME280;4701;51.566;6.776;2023-03-25T15:15:29;100067.47;;;10.81;77.96
9325;BME280;4701;51.566;6.776;2023-03-25T15:19:00;100075.91;;;10.85;78.35
9325;BME280;4701;51.566;6.776;2023-03-25T15:22:17;100055.72;;;10.86;78.15
9325;BME280;4701;51.566;6.776;2023-03-25T15:25:21;100055.16;;;10.89;78.17
9325;BME280;4701;51.566;6.776;2023-03-25T15:28:34;100064.13;;;10.94;77.97
9325;BME280;4701;51.566;6.776;2023-03-25T15:31:51;100056.69;;;11.00;78.03
9325;BME280;4701;51.566;6.776;2023-03-25T15:35:16;100040.00;;;11.07;77.75
9325;BME280;4701;51.566;6.776;2023-03-25T15:38:36;100047.88;;;11.13;77.62
9325;BME280;4701;51.566;6.776;2023-03-25T15:45:21;100047.72;;;11.28;76.91
9325;BME280;4701;51.566;6.776;2023-03-25T15:48:38;100055.84;;;11.33;76.03
9325;BME280;4701;51.566;6.776;2023-03-25T15:51:55;100054.16;;;11.37;75.06
9325;BME280;4701;51.566;6.776;2023-03-25T15:55:04;100057.72;;;11.38;75.31
9325;BME280;4701;51.566;6.776;2023-03-25T15:58:16;100069.44;;;11.38;75.12
9325;BME280;4701;51.566;6.776;2023-03-25T16:01:26;100041.91;;;11.35;75.18
9325;BME280;4701;51.566;6.776;2023-03-25T16:04:34;100056.91;;;11.37;74.98
9325;BME280;4701;51.566;6.776;2023-03-25T16:07:39;100062.09;;;11.34;75.38
9325;BME280;4701;51.566;6.776;2023-03-25T16:10:42;100070.28;;;11.34;75.23
9325;BME280;4701;51.566;6.776;2023-03-25T16:14:00;100067.03;;;11.32;74.68
9325;BME280;4701;51.566;6.776;2023-03-25T16:17:05;100070.34;;;11.29;74.60
9325;BME280;4701;51.566;6.776;2023-03-25T16:20:12;100068.72;;;11.28;74.60
9325;BME280;4701;51.566;6.776;2023-03-25T16:23:19;100080.19;;;11.25;74.45
9325;BME280;4701;51.566;6.776;2023-03-25T16:26:33;100082.38;;;11.23;74.51
9325;BME280;4701;51.566;6.776;2023-03-25T16:29:37;100084.63;;;11.21;74.17
9325;BME280;4701;51.566;6.776;2023-03-25T16:32:40;100092.81;;;11.21;74.58
9325;BME280;4701;51.566;6.776;2023-03-25T16:35:44;100087.63;;;11.19;74.79
9325;BME280;4701;51.566;6.776;2023-03-25T16:38:47;100102.34;;;11.18;75.16
9325;BME280;4701;51.566;6.776;2023-03-25T16:41:50;100089.00;;;11.17;75.34
9325;BME280;4701;51.566;6.776;2023-03-25T16:44:54;100109.19;;;11.16;75.02
9325;BME280;4701;51.566;6.776;2023-03-25T16:47:56;100107.28;;;11.16;74.95
9325;BME280;4701;51.566;6.776;2023-03-25T16:51:07;100108.69;;;11.14;75.22
9325;BME280;4701;51.566;6.776;2023-03-25T16:54:21;100100.78;;;11.12;75.03
9325;BME280;4701;51.566;6.776;2023-03-25T16:57:28;100110.59;;;11.13;75.19
9325;BME280;4701;51.566;6.776;2023-03-25T17:00:39;100107.06;;;11.13;75.51
9325;BME280;4701;51.566;6.776;2023-03-25T17:03:44;100108.97;;;11.12;75.51
9325;BME280;4701;51.566;6.776;2023-03-25T17:06:48;100109.25;;;11.11;75.67
9325;BME280;4701;51.566;6.776;2023-03-25T17:09:54;100123.41;;;11.13;75.55
9325;BME280;4701;51.566;6.776;2023-03-25T17:12:58;100119.88;;;11.12;75.20
9325;BME280;4701;51.566;6.776;2023-03-25T17:16:06;100118.78;;;11.13;75.54
9325;BME280;4701;51.566;6.776;2023-03-25T17:19:11;100126.97;;;11.13;75.22
9325;BME280;4701;51.566;6.776;2023-03-25T17:22:19;100133.22;;;11.14;75.38
9325;BME280;4701;51.566;6.776;2023-03-25T17:25:26;100139.19;;;11.16;75.49
9325;BME280;4701;51.566;6.776;2023-03-25T17:28:34;100144.66;;;11.16;74.76
9325;BME280;4701;51.566;6.776;2023-03-25T17:31:39;100154.47;;;11.17;74.61
9325;BME280;4701;51.566;6.776;2023-03-25T17:34:41;100157.19;;;11.17;74.33
9325;BME280;4701;51.566;6.776;2023-03-25T17:37:47;100159.09;;;11.16;73.94
9325;BME280;4701;51.566;6.776;2023-03-25T17:40:57;100158.28;;;11.16;73.68
9325;BME280;4701;51.566;6.776;2023-03-25T17:44:00;100160.75;;;11.17;73.04
9325;BME280;4701;51.566;6.776;2023-03-25T17:47:04;100169.72;;;11.18;72.97
9325;BME280;4701;51.566;6.776;2023-03-25T17:50:13;100162.66;;;11.17;72.63
9325;BME280;4701;51.566;6.776;2023-03-25T17:53:15;100172.47;;;11.18;72.88
9325;BME280;4701;51.566;6.776;2023-03-25T17:56:20;100174.91;;;11.19;73.49
9325;BME280;4701;51.566;6.776;2023-03-25T17:59:24;100182.81;;;11.21;72.98
9325;BME280;4701;51.566;6.776;2023-03-25T18:02:28;100191.00;;;11.21;72.42
9325;BME280;4701;51.566;6.776;2023-03-25T18:05:30;100193.72;;;11.21;72.38
9325;BME280;4701;51.566;6.776;2023-03-25T18:08:32;100192.91;;;11.20;72.87
9325;BME280;4701;51.566;6.776;2023-03-25T18:11:34;100192.91;;;11.20;73.35
9325;BME280;4701;51.566;6.776;2023-03-25T18:14:36;100199.19;;;11.21;73.93
9325;BME280;4701;51.566;6.776;2023-03-25T18:17:39;100207.88;;;11.23;74.06
9325;BME280;4701;51.566;6.776;2023-03-25T18:20:41;100201.91;;;11.21;74.31
9325;BME280;4701;51.566;6.776;2023-03-25T18:23:45;100204.09;;;11.19;74.83
9325;BME280;4701;51.566;6.776;2023-03-25T18:26:48;100204.38;;;11.17;74.60
9325;BME280;4701;51.566;6.776;2023-03-25T18:29:50;100208.19;;;11.16;74.58
9325;BME280;4701;51.566;6.776;2023-03-25T20:44:47;100315.28;;;9.00;88.82
